createdAt,value
2019-04-26T00:00:11.967Z,63.1348
2019-04-26T00:01:15.995Z,62.6221
2019-04-26T00:02:19.355Z,63.3423
2019-04-26T00:03:22.295Z,62.5183
2019-04-26T00:04:25.378Z,63.4399
2019-04-26T00:05:34.408Z,63.0310
2019-04-26T00:06:36.310Z,63.4399
2019-04-26T00:07:39.317Z,63.6475
2019-04-26T00:08:42.281Z,63.2385
2019-04-26T00:09:45.301Z,63.2385
2019-04-26T00:10:48.307Z,62.8296
2019-04-26T00:11:51.334Z,63.0310
2019-04-26T00:12:54.282Z,62.1094
2019-04-26T00:13:57.291Z,63.3118
2019-04-26T00:15:00.282Z,63.8245
2019-04-26T00:16:03.372Z,62.7258
2019-04-26T00:17:06.344Z,63.5132
2019-04-26T00:18:10.222Z,63.7207
2019-04-26T00:19:14.328Z,64.1296
2019-04-26T00:20:17.292Z,63.2385
2019-04-26T00:21:20.351Z,64.0564
2019-04-26T00:22:23.294Z,63.9587
2019-04-26T00:23:26.303Z,63.8550
2019-04-26T00:24:29.268Z,64.0564
2019-04-26T00:25:32.295Z,64.0564
2019-04-26T00:26:34.341Z,63.6475
2019-04-26T00:27:37.306Z,63.8550
2019-04-26T00:28:40.324Z,64.1602
2019-04-26T00:29:43.316Z,64.7766
2019-04-26T00:30:46.358Z,65.1855
2019-04-26T00:31:49.332Z,65.3931
2019-04-26T00:32:52.297Z,65.0146
2019-04-26T00:33:54.291Z,65.5273
2019-04-26T00:34:57.281Z,65.2161
2019-04-26T00:36:00.344Z,65.4968
2019-04-26T00:37:03.305Z,65.7349
2019-04-26T00:38:06.335Z,65.1184
2019-04-26T00:39:09.262Z,65.4236
2019-04-26T00:40:13.239Z,65.7043
2019-04-26T00:41:18.407Z,65.9058
2019-04-26T00:42:21.363Z,65.9363
2019-04-26T00:43:24.300Z,65.4236
2019-04-26T00:44:27.318Z,65.8325
2019-04-26T00:45:30.284Z,65.7349
2019-04-26T00:46:33.306Z,65.0146
2019-04-26T00:47:36.339Z,64.3677
2019-04-26T00:48:39.287Z,64.0564
2019-04-26T00:49:43.751Z,63.5132
2019-04-26T00:50:47.279Z,63.0005
2019-04-26T00:51:50.306Z,62.2864
2019-04-26T00:52:53.419Z,62.0483
2019-04-26T00:53:56.280Z,62.9761
2019-04-26T00:54:59.294Z,62.2559
2019-04-26T00:56:02.282Z,62.0483
2019-04-26T00:57:05.335Z,61.6394
2019-04-26T00:58:08.309Z,62.2253
2019-04-26T00:59:11.311Z,61.9202
2019-04-26T01:00:15.391Z,61.9202
2019-04-26T01:01:19.327Z,61.3037
2019-04-26T01:02:22.765Z,60.8948
2019-04-26T01:03:26.334Z,62.1216
2019-04-26T01:04:29.333Z,61.3037
2019-04-26T01:05:32.272Z,61.0962
2019-04-26T01:06:35.333Z,60.6873
2019-04-26T01:07:38.351Z,60.8643
2019-04-26T01:08:41.333Z,61.9934
2019-04-26T01:09:44.313Z,61.6882
2019-04-26T01:10:47.318Z,62.1216
2019-04-26T01:11:50.295Z,61.8164
2019-04-26T01:12:53.339Z,61.6089
2019-04-26T01:13:56.275Z,62.2253
2019-04-26T01:14:59.326Z,62.7380
2019-04-26T01:16:02.277Z,63.3545
2019-04-26T01:17:05.295Z,63.4583
2019-04-26T01:18:08.342Z,64.3799
2019-04-26T01:19:11.290Z,63.0737
2019-04-26T01:20:14.353Z,65.4358
2019-04-26T01:21:18.434Z,66.1560
2019-04-26T01:22:21.317Z,65.6433
2019-04-26T01:23:25.090Z,64.3372
2019-04-26T01:24:28.335Z,66.1865
2019-04-26T01:25:31.286Z,67.9260
2019-04-26T01:26:34.270Z,66.5955
2019-04-26T01:27:37.305Z,67.7246
2019-04-26T01:28:40.291Z,66.9312
2019-04-26T01:29:43.323Z,67.0349
2019-04-26T01:30:46.292Z,66.2170
2019-04-26T01:31:49.294Z,66.4185
2019-04-26T01:32:52.334Z,66.6260
2019-04-26T01:33:55.290Z,65.5701
2019-04-26T01:34:58.318Z,64.9536
2019-04-26T01:36:12.105Z,64.0320
2019-04-26T01:37:08.285Z,63.5132
2019-04-26T01:38:11.329Z,63.5132
2019-04-26T01:39:14.286Z,63.0737
2019-04-26T01:40:17.310Z,62.6648
2019-04-26T01:41:21.289Z,62.8723
2019-04-26T01:42:26.313Z,62.2559
2019-04-26T01:43:29.329Z,61.9507
2019-04-26T01:44:34.304Z,61.7432
2019-04-26T01:45:37.303Z,61.8164
2019-04-26T01:46:40.297Z,64.7888
2019-04-26T01:47:42.274Z,65.6433
2019-04-26T01:48:45.337Z,64.5142
2019-04-26T01:49:48.272Z,64.4104
2019-04-26T01:50:51.305Z,65.7410
2019-04-26T01:51:54.295Z,64.6118
2019-04-26T01:52:57.306Z,64.9231
2019-04-26T01:54:00.308Z,63.8977
2019-04-26T01:55:03.312Z,64.2029
2019-04-26T01:56:06.284Z,65.2283
2019-04-26T01:57:09.300Z,65.7410
2019-04-26T01:58:12.307Z,66.4917
2019-04-26T01:59:15.324Z,65.7715
2019-04-26T02:00:18.336Z,67.0044
2019-04-26T02:01:22.321Z,67.4133
2019-04-26T02:02:26.314Z,66.9006
2019-04-26T02:03:29.847Z,66.2842
2019-04-26T02:04:33.347Z,66.1865
2019-04-26T02:05:36.266Z,65.5701
2019-04-26T02:06:39.302Z,65.0574
2019-04-26T02:07:42.306Z,65.0574
2019-04-26T02:08:45.346Z,65.0574
2019-04-26T02:09:48.333Z,64.1296
2019-04-26T02:10:51.344Z,64.9231
2019-04-26T02:11:54.322Z,64.9231
2019-04-26T02:12:57.293Z,65.3320
2019-04-26T02:14:00.311Z,64.9231
2019-04-26T02:15:03.318Z,64.5142
2019-04-26T02:16:06.306Z,63.7939
2019-04-26T02:17:09.290Z,64.5142
2019-04-26T02:18:12.282Z,64.0015
2019-04-26T02:19:15.307Z,64.2029
2019-04-26T02:20:18.355Z,64.6118
2019-04-26T02:21:21.281Z,64.5142
2019-04-26T02:22:24.493Z,64.0015
2019-04-26T02:23:27.922Z,64.0015
2019-04-26T02:24:32.163Z,63.4888
2019-04-26T02:25:35.301Z,62.9761
2019-04-26T02:26:38.289Z,62.6648
2019-04-26T02:27:41.327Z,62.3596
2019-04-26T02:28:44.278Z,63.1470
2019-04-26T02:29:47.361Z,62.6343
2019-04-26T02:30:50.305Z,62.5366
2019-04-26T02:31:53.432Z,62.7380
2019-04-26T02:32:56.337Z,62.7380
2019-04-26T02:33:59.303Z,63.1470
2019-04-26T02:35:02.360Z,63.3545
2019-04-26T02:36:05.293Z,62.5366
2019-04-26T02:37:08.317Z,63.6597
2019-04-26T02:38:11.349Z,64.2761
2019-04-26T02:39:14.291Z,63.8672
2019-04-26T02:40:17.439Z,63.2507
2019-04-26T02:41:20.286Z,62.9456
2019-04-26T02:42:23.316Z,62.6343
2019-04-26T02:43:28.094Z,62.3291
2019-04-26T02:44:34.481Z,62.3291
2019-04-26T02:45:38.314Z,63.1470
2019-04-26T02:46:41.286Z,63.1470
2019-04-26T02:47:44.311Z,63.6597
2019-04-26T02:48:47.308Z,62.5366
2019-04-26T02:49:50.338Z,62.3291
2019-04-26T02:50:53.384Z,62.2253
2019-04-26T02:51:56.356Z,63.8672
2019-04-26T02:52:59.271Z,63.6597
2019-04-26T02:54:02.364Z,63.1470
2019-04-26T02:55:05.301Z,63.2507
2019-04-26T02:56:08.371Z,62.7380
2019-04-26T02:57:11.295Z,63.0493
2019-04-26T02:58:14.310Z,63.0493
2019-04-26T02:59:16.315Z,63.0493
2019-04-26T03:00:19.291Z,63.2507
2019-04-26T03:01:22.333Z,62.9456
2019-04-26T03:02:25.311Z,62.7380
2019-04-26T03:03:29.837Z,62.2253
2019-04-26T03:04:34.625Z,62.0239
2019-04-26T03:05:39.685Z,61.9202
2019-04-26T03:06:43.318Z,61.6882
2019-04-26T03:07:46.288Z,61.8896
2019-04-26T03:08:49.332Z,62.5061
2019-04-26T03:09:52.309Z,63.8367
2019-04-26T03:10:54.312Z,63.8367
2019-04-26T03:11:57.325Z,63.2202
2019-04-26T03:13:00.323Z,63.2507
2019-04-26T03:14:03.294Z,62.7380
2019-04-26T03:15:13.715Z,62.4329
2019-04-26T03:16:14.305Z,63.0188
2019-04-26T03:17:17.341Z,64.3799
2019-04-26T03:18:20.337Z,64.5874
2019-04-26T03:19:23.301Z,63.4583
2019-04-26T03:20:26.307Z,63.5620
2019-04-26T03:21:31.979Z,64.6851
2019-04-26T03:22:36.670Z,63.2507
2019-04-26T03:23:52.828Z,64.3799
2019-04-26T03:24:48.752Z,65.4053
2019-04-26T03:25:52.313Z,64.1724
2019-04-26T03:26:55.341Z,64.8926
2019-04-26T03:27:58.305Z,64.2761
2019-04-26T03:29:01.291Z,64.2761
2019-04-26T03:30:18.663Z,63.8672
2019-04-26T03:31:12.279Z,63.4583
2019-04-26T03:32:16.583Z,64.3799
2019-04-26T03:33:20.406Z,64.3799
2019-04-26T03:34:23.289Z,64.1724
2019-04-26T03:35:26.291Z,63.9709
2019-04-26T03:36:29.329Z,63.7634
2019-04-26T03:37:34.146Z,63.7634
2019-04-26T03:38:39.681Z,66.5344
2019-04-26T03:39:44.376Z,66.5344
2019-04-26T03:40:47.305Z,65.9180
2019-04-26T03:41:50.299Z,70.4590
2019-04-26T03:42:53.297Z,69.6411
2019-04-26T03:43:56.321Z,69.6716
2019-04-26T03:44:59.380Z,69.3665
2019-04-26T03:46:02.318Z,73.1628
2019-04-26T03:47:05.291Z,70.9351
2019-04-26T03:48:08.329Z,72.7844
2019-04-26T03:49:11.274Z,73.6389
2019-04-26T03:50:14.306Z,74.1516
2019-04-26T03:51:17.313Z,74.2920
2019-04-26T03:52:20.290Z,73.7793
2019-04-26T03:53:23.356Z,74.4995
2019-04-26T03:54:26.271Z,74.2920
2019-04-26T03:55:29.319Z,73.4680
2019-04-26T03:56:32.314Z,72.4426
2019-04-26T03:57:36.909Z,72.3389
2019-04-26T03:58:41.924Z,72.4426
2019-04-26T03:59:46.320Z,73.2666
2019-04-26T04:00:49.343Z,74.3958
2019-04-26T04:01:52.298Z,74.1882
2019-04-26T04:02:55.357Z,73.0591
2019-04-26T04:03:58.267Z,73.6755
2019-04-26T04:05:01.321Z,73.1628
2019-04-26T04:06:04.281Z,72.8516
2019-04-26T04:07:07.323Z,71.7224
2019-04-26T04:08:10.334Z,70.7947
2019-04-26T04:09:13.317Z,72.7478
2019-04-26T04:10:16.288Z,72.6135
2019-04-26T04:11:19.265Z,73.2666
2019-04-26T04:12:22.410Z,71.5149
2019-04-26T04:13:25.330Z,72.3389
2019-04-26T04:14:28.376Z,72.7478
2019-04-26T04:15:31.328Z,72.0276
2019-04-26T04:16:34.325Z,72.4426
2019-04-26T04:17:39.010Z,73.3643
2019-04-26T04:18:45.435Z,72.5464
2019-04-26T04:19:48.297Z,71.2097
2019-04-26T04:20:51.340Z,70.6970
2019-04-26T04:21:54.372Z,72.1008
2019-04-26T04:22:57.280Z,74.3958
2019-04-26T04:24:00.392Z,72.6501
2019-04-26T04:25:02.323Z,73.9807
2019-04-26T04:26:05.299Z,74.2920
2019-04-26T04:27:08.320Z,74.4995
2019-04-26T04:28:11.312Z,74.0173
2019-04-26T04:29:14.366Z,72.9919
2019-04-26T04:30:17.349Z,73.4680
2019-04-26T04:31:20.328Z,72.3389
2019-04-26T04:32:25.330Z,73.3643
2019-04-26T04:33:28.306Z,72.8516
2019-04-26T04:34:31.295Z,73.0591
2019-04-26T04:35:34.309Z,72.2351
2019-04-26T04:36:37.291Z,72.3389
2019-04-26T04:37:54.533Z,73.7793
2019-04-26T04:38:49.529Z,72.1313
2019-04-26T04:39:53.484Z,72.5464
2019-04-26T04:40:56.349Z,73.9807
2019-04-26T04:41:59.288Z,73.5718
2019-04-26T04:43:02.468Z,73.2666
2019-04-26T04:44:05.360Z,72.7478
2019-04-26T04:45:08.318Z,73.5718
2019-04-26T04:46:11.364Z,73.4680
2019-04-26T04:47:23.792Z,72.4426
2019-04-26T04:48:22.314Z,72.8516
2019-04-26T04:49:25.350Z,74.2920
2019-04-26T04:50:27.301Z,74.4263
2019-04-26T04:51:30.341Z,73.8098
2019-04-26T04:52:33.323Z,73.0896
2019-04-26T04:53:36.300Z,73.2971
2019-04-26T04:54:39.354Z,74.6338
2019-04-26T04:55:43.510Z,74.0173
2019-04-26T04:56:47.854Z,74.6338
2019-04-26T04:57:50.394Z,75.0793
2019-04-26T04:58:53.329Z,74.7742
2019-04-26T04:59:56.373Z,75.4944
2019-04-26T05:00:59.308Z,75.1831
2019-04-26T05:02:02.338Z,75.5249
2019-04-26T05:03:05.280Z,75.6287
2019-04-26T05:04:08.301Z,75.1160
2019-04-26T05:05:11.319Z,74.2920
2019-04-26T05:06:14.320Z,75.8362
2019-04-26T05:07:17.345Z,76.2451
2019-04-26T05:08:20.310Z,75.7324
2019-04-26T05:09:23.263Z,76.8982
2019-04-26T05:10:26.330Z,76.5930
2019-04-26T05:11:29.269Z,75.6653
2019-04-26T05:12:32.315Z,75.1526
2019-04-26T05:13:35.296Z,74.9451
2019-04-26T05:14:38.313Z,75.0122
2019-04-26T05:15:41.306Z,75.9399
2019-04-26T05:16:44.986Z,76.1414
2019-04-26T05:17:49.476Z,75.2502
2019-04-26T05:18:51.334Z,76.1780
2019-04-26T05:19:54.872Z,76.0742
2019-04-26T05:20:58.304Z,76.7944
2019-04-26T05:22:01.322Z,76.5259
2019-04-26T05:23:04.389Z,76.4221
2019-04-26T05:24:07.269Z,75.9033
2019-04-26T05:25:10.323Z,76.8311
2019-04-26T05:26:13.369Z,76.3184
2019-04-26T05:27:16.351Z,76.3184
2019-04-26T05:28:19.287Z,75.8057
2019-04-26T05:29:21.335Z,75.3906
2019-04-26T05:30:24.393Z,75.5981
2019-04-26T05:31:27.324Z,75.0793
2019-04-26T05:32:30.271Z,75.9033
2019-04-26T05:33:33.290Z,75.2869
2019-04-26T05:34:36.326Z,74.2554
2019-04-26T05:35:39.355Z,74.3591
2019-04-26T05:36:42.343Z,74.9817
2019-04-26T05:37:45.302Z,74.2554
2019-04-26T05:38:49.248Z,74.7375
2019-04-26T05:39:53.202Z,74.1211
2019-04-26T05:40:56.345Z,73.7061
2019-04-26T05:41:59.266Z,73.9136
2019-04-26T05:43:02.307Z,74.0173
2019-04-26T05:44:05.320Z,74.3286
2019-04-26T05:45:08.287Z,75.3540
2019-04-26T05:46:11.309Z,74.8779
2019-04-26T05:47:14.291Z,74.9817
2019-04-26T05:48:17.310Z,74.8779
2019-04-26T05:49:20.319Z,74.3591
2019-04-26T05:50:23.348Z,74.3591
2019-04-26T05:51:26.304Z,73.7061
2019-04-26T05:52:29.318Z,74.1211
2019-04-26T05:53:32.283Z,73.7061
2019-04-26T05:54:35.267Z,73.0896
2019-04-26T05:55:38.351Z,73.4009
2019-04-26T05:56:41.339Z,73.0896
2019-04-26T05:57:44.318Z,73.0896
2019-04-26T05:58:47.300Z,73.8098
2019-04-26T05:59:50.626Z,73.4680
2019-04-26T06:00:53.925Z,72.8821
2019-04-26T06:01:57.312Z,72.8516
2019-04-26T06:03:01.247Z,71.8201
2019-04-26T06:04:04.310Z,72.5403
2019-04-26T06:05:07.374Z,71.4111
2019-04-26T06:06:10.346Z,70.8984
2019-04-26T06:07:13.297Z,70.8618
2019-04-26T06:08:16.303Z,70.4529
2019-04-26T06:09:19.301Z,70.3491
2019-04-26T06:10:21.346Z,69.9402
2019-04-26T06:11:24.334Z,70.8313
2019-04-26T06:12:27.306Z,70.9351
2019-04-26T06:13:30.319Z,70.2148
2019-04-26T06:14:33.310Z,72.5769
2019-04-26T06:15:36.334Z,73.1934
2019-04-26T06:16:39.308Z,71.9604
2019-04-26T06:17:42.297Z,73.0896
2019-04-26T06:18:45.303Z,72.4731
2019-04-26T06:19:48.359Z,72.4731
2019-04-26T06:20:51.192Z,73.7061
2019-04-26T06:21:55.873Z,72.9919
2019-04-26T06:23:00.478Z,72.9919
2019-04-26T06:24:03.344Z,72.6807
2019-04-26T06:25:06.294Z,73.6084
2019-04-26T06:26:09.375Z,73.5352
2019-04-26T06:27:14.288Z,72.5098
2019-04-26T06:28:17.327Z,71.9604
2019-04-26T06:29:19.311Z,72.1680
2019-04-26T06:30:23.387Z,72.2717
2019-04-26T06:31:25.323Z,71.5515
2019-04-26T06:32:28.391Z,71.9604
2019-04-26T06:33:31.264Z,71.7529
2019-04-26T06:34:34.277Z,71.1365
2019-04-26T06:35:37.365Z,70.6238
2019-04-26T06:36:40.270Z,70.8313
2019-04-26T06:37:43.296Z,70.4163
2019-04-26T06:38:45.326Z,70.5200
2019-04-26T06:39:47.536Z,70.1111
2019-04-26T06:40:49.636Z,70.1111
2019-04-26T06:41:52.341Z,69.7021
2019-04-26T06:42:56.187Z,69.9036
2019-04-26T06:44:00.356Z,71.3440
2019-04-26T06:45:03.307Z,71.7529
2019-04-26T06:46:06.299Z,71.6553
2019-04-26T06:47:09.324Z,71.4783
2019-04-26T06:48:12.335Z,72.6135
2019-04-26T06:49:15.315Z,71.7896
2019-04-26T06:50:18.303Z,71.3745
2019-04-26T06:51:24.546Z,72.4060
2019-04-26T06:52:28.316Z,71.8567
2019-04-26T06:53:31.295Z,72.4731
2019-04-26T06:54:34.303Z,72.4731
2019-04-26T06:55:37.282Z,72.3755
2019-04-26T06:56:40.367Z,72.3755
2019-04-26T06:57:43.269Z,72.0642
2019-04-26T06:58:46.314Z,71.6553
2019-04-26T06:59:49.330Z,71.2402
2019-04-26T07:00:54.362Z,72.0642
2019-04-26T07:01:57.979Z,71.0388
2019-04-26T07:03:03.554Z,70.6238
2019-04-26T07:04:07.311Z,70.4895
2019-04-26T07:05:10.380Z,71.3135
2019-04-26T07:06:13.319Z,71.4111
2019-04-26T07:07:16.336Z,71.9299
2019-04-26T07:08:19.320Z,70.8313
2019-04-26T07:09:22.310Z,70.5933
2019-04-26T07:10:25.311Z,71.8262
2019-04-26T07:11:28.343Z,71.9604
2019-04-26T07:12:30.360Z,71.9604
2019-04-26T07:13:33.279Z,71.9604
2019-04-26T07:14:36.328Z,71.6553
2019-04-26T07:15:39.293Z,71.2402
2019-04-26T07:16:42.278Z,70.9351
2019-04-26T07:17:45.305Z,70.6238
2019-04-26T07:18:48.303Z,71.3440
2019-04-26T07:19:51.287Z,70.5933
2019-04-26T07:20:54.315Z,70.6970
2019-04-26T07:21:56.374Z,70.3857
2019-04-26T07:22:59.382Z,70.6970
2019-04-26T07:24:02.889Z,70.2820
2019-04-26T07:25:07.369Z,70.8984
2019-04-26T07:26:10.334Z,70.8313
2019-04-26T07:27:13.326Z,70.5200
2019-04-26T07:28:16.344Z,70.1111
2019-04-26T07:29:19.348Z,71.0388
2019-04-26T07:30:22.356Z,70.7275
2019-04-26T07:31:26.395Z,70.9351
2019-04-26T07:32:29.309Z,70.4163
2019-04-26T07:33:32.353Z,70.3186
2019-04-26T07:34:35.302Z,70.2148
2019-04-26T07:35:38.304Z,69.9036
2019-04-26T07:36:41.299Z,70.0073
2019-04-26T07:37:44.326Z,71.3440
2019-04-26T07:38:47.334Z,70.3186
2019-04-26T07:39:50.290Z,70.6238
2019-04-26T07:40:53.338Z,71.3440
2019-04-26T07:41:57.298Z,70.7275
2019-04-26T07:42:59.414Z,70.4163
2019-04-26T07:44:03.547Z,71.8567
2019-04-26T07:45:07.544Z,71.0388
2019-04-26T07:46:10.664Z,70.8313
2019-04-26T07:47:15.347Z,70.8313
2019-04-26T07:48:18.338Z,70.6238
2019-04-26T07:49:21.303Z,71.1365
2019-04-26T07:50:24.331Z,71.0388
2019-04-26T07:51:27.284Z,70.8313
2019-04-26T07:52:30.355Z,71.0388
2019-04-26T07:53:33.310Z,70.7275
2019-04-26T07:54:36.309Z,70.7275
2019-04-26T07:55:39.301Z,70.1111
2019-04-26T07:56:42.313Z,70.5200
2019-04-26T07:57:45.355Z,71.8567
2019-04-26T07:58:48.301Z,70.9351
2019-04-26T07:59:51.358Z,70.4163
2019-04-26T08:00:54.282Z,71.1365
2019-04-26T08:01:57.324Z,70.8313
2019-04-26T08:03:00.331Z,70.9351
2019-04-26T08:04:03.988Z,71.0022
2019-04-26T08:05:09.417Z,70.8984
2019-04-26T08:06:12.303Z,70.7947
2019-04-26T08:07:15.407Z,70.2820
2019-04-26T08:08:18.368Z,70.3857
2019-04-26T08:09:26.996Z,70.4895
2019-04-26T08:10:29.285Z,71.8262
2019-04-26T08:11:32.320Z,71.1060
2019-04-26T08:12:35.308Z,71.5149
2019-04-26T08:13:38.342Z,71.4111
2019-04-26T08:14:41.276Z,71.6187
2019-04-26T08:15:44.311Z,71.8262
2019-04-26T08:16:47.281Z,71.7224
2019-04-26T08:17:50.350Z,71.6187
2019-04-26T08:18:52.386Z,72.2351
2019-04-26T08:19:57.526Z,72.3389
2019-04-26T08:21:02.572Z,71.8262
2019-04-26T08:22:17.879Z,72.8516
2019-04-26T08:23:38.107Z,72.5464
2019-04-26T08:24:27.865Z,73.1628
2019-04-26T08:25:31.325Z,72.5464
2019-04-26T08:26:34.306Z,72.3389
2019-04-26T08:27:37.344Z,72.3389
2019-04-26T08:28:40.304Z,72.8516
2019-04-26T08:29:43.321Z,72.0276
2019-04-26T08:30:46.355Z,71.7896
2019-04-26T08:31:49.288Z,71.8933
2019-04-26T08:32:52.336Z,73.4375
2019-04-26T08:33:56.349Z,73.0225
2019-04-26T08:35:02.305Z,72.5098
2019-04-26T08:36:08.724Z,73.5352
2019-04-26T08:37:12.663Z,72.7173
2019-04-26T08:38:21.968Z,72.6135
2019-04-26T08:39:29.622Z,72.9187
2019-04-26T08:40:31.509Z,72.3083
2019-04-26T08:41:38.986Z,72.2717
2019-04-26T08:42:42.337Z,72.7844
2019-04-26T08:43:45.281Z,72.0642
2019-04-26T08:44:50.909Z,71.8628
2019-04-26T08:46:02.816Z,72.9919
2019-04-26T08:47:02.324Z,72.2412
2019-04-26T08:48:05.325Z,72.3389
2019-04-26T08:49:09.543Z,72.8516
2019-04-26T08:50:13.697Z,73.0957
2019-04-26T08:51:20.491Z,72.4792
2019-04-26T08:52:25.285Z,73.1934
2019-04-26T08:53:27.380Z,72.5769
2019-04-26T08:54:32.565Z,72.4792
2019-04-26T08:55:36.351Z,72.7844
2019-04-26T08:56:39.312Z,72.4792
2019-04-26T08:57:42.272Z,71.5515
2019-04-26T08:58:45.340Z,71.1426
2019-04-26T08:59:48.295Z,71.7224
2019-04-26T09:00:51.347Z,72.5464
2019-04-26T09:01:54.330Z,72.3755
2019-04-26T09:02:57.336Z,72.0642
2019-04-26T09:04:00.303Z,71.8628
2019-04-26T09:05:03.347Z,71.3501
2019-04-26T09:06:06.317Z,71.4478
2019-04-26T09:07:09.321Z,71.2463
2019-04-26T09:08:12.312Z,71.1426
2019-04-26T09:09:18.184Z,71.6248
2019-04-26T09:10:23.340Z,70.9045
2019-04-26T09:11:33.472Z,70.8008
2019-04-26T09:12:34.312Z,70.3918
2019-04-26T09:13:37.294Z,70.5994
2019-04-26T09:14:40.357Z,70.8008
2019-04-26T09:15:43.313Z,71.8262
2019-04-26T09:16:50.420Z,71.9299
2019-04-26T09:17:54.319Z,71.8262
2019-04-26T09:18:59.583Z,72.1680
2019-04-26T09:20:07.684Z,71.8628
2019-04-26T09:21:13.422Z,72.4792
2019-04-26T09:22:22.529Z,72.1680
2019-04-26T09:23:39.362Z,72.6807
2019-04-26T09:24:35.355Z,72.2717
2019-04-26T09:25:39.301Z,71.4478
2019-04-26T09:26:46.257Z,71.0388
2019-04-26T09:27:50.313Z,71.5210
2019-04-26T09:28:56.588Z,71.2097
2019-04-26T09:30:00.642Z,71.5210
2019-04-26T09:31:07.364Z,71.8262
2019-04-26T09:32:10.281Z,71.8262
2019-04-26T09:33:13.367Z,71.7224
2019-04-26T09:34:16.346Z,71.1121
2019-04-26T09:35:19.309Z,70.6970
2019-04-26T09:36:22.343Z,70.5994
2019-04-26T09:37:25.295Z,70.3918
2019-04-26T09:38:28.353Z,70.2881
2019-04-26T09:39:31.300Z,69.8792
2019-04-26T09:40:34.329Z,70.4590
2019-04-26T09:41:37.323Z,70.8740
2019-04-26T09:42:41.048Z,71.1792
2019-04-26T09:43:44.302Z,70.3613
2019-04-26T09:44:46.345Z,69.8425
2019-04-26T09:45:49.327Z,69.8425
2019-04-26T09:46:52.889Z,69.7449
2019-04-26T09:47:57.306Z,71.4844
2019-04-26T09:49:03.056Z,72.0337
2019-04-26T09:50:11.268Z,72.1375
2019-04-26T09:51:16.276Z,71.8262
2019-04-26T09:52:19.340Z,71.7224
2019-04-26T09:53:22.281Z,71.7590
2019-04-26T09:54:25.333Z,71.4478
2019-04-26T09:55:35.285Z,72.0337
2019-04-26T09:56:36.360Z,72.8882
2019-04-26T09:57:39.348Z,72.7844
2019-04-26T09:58:41.328Z,71.9666
2019-04-26T09:59:44.316Z,71.8628
2019-04-26T10:00:48.617Z,71.6553
2019-04-26T10:01:55.352Z,71.9666
2019-04-26T10:03:01.322Z,71.9666
2019-04-26T10:04:04.325Z,71.6553
2019-04-26T10:05:08.144Z,71.9666
2019-04-26T10:06:14.308Z,72.0642
2019-04-26T10:07:17.443Z,71.6553
2019-04-26T10:08:20.347Z,71.1426
2019-04-26T10:09:23.381Z,71.2463
2019-04-26T10:10:26.297Z,71.4172
2019-04-26T10:11:29.322Z,71.4172
2019-04-26T10:12:32.348Z,72.0337
2019-04-26T10:13:35.358Z,72.2412
2019-04-26T10:14:38.292Z,71.5515
2019-04-26T10:15:41.339Z,72.2412
2019-04-26T10:16:44.317Z,72.0337
2019-04-26T10:17:50.149Z,71.9666
2019-04-26T10:18:54.448Z,72.2412
2019-04-26T10:19:57.329Z,71.6248
2019-04-26T10:21:00.342Z,71.5210
2019-04-26T10:22:05.332Z,71.9299
2019-04-26T10:23:08.324Z,72.0337
2019-04-26T10:24:11.315Z,72.1375
2019-04-26T10:25:16.899Z,71.8262
2019-04-26T10:26:23.314Z,72.1375
2019-04-26T10:27:28.316Z,71.7224
2019-04-26T10:28:31.314Z,71.6248
2019-04-26T10:29:33.314Z,71.9299
2019-04-26T10:30:38.358Z,71.9971
2019-04-26T10:31:43.331Z,72.5098
2019-04-26T10:32:46.353Z,73.1262
2019-04-26T10:33:49.299Z,72.6135
2019-04-26T10:34:52.331Z,72.3083
2019-04-26T10:35:56.617Z,72.8210
2019-04-26T10:37:05.518Z,72.9248
2019-04-26T10:38:09.345Z,73.0225
2019-04-26T10:39:12.298Z,73.2300
2019-04-26T10:40:15.340Z,73.1262
2019-04-26T10:41:18.277Z,73.0225
2019-04-26T10:42:21.312Z,73.8464
2019-04-26T10:43:24.320Z,74.0479
2019-04-26T10:44:27.304Z,73.8831
2019-04-26T10:45:30.290Z,74.2920
2019-04-26T10:46:33.324Z,74.3958
2019-04-26T10:47:38.416Z,74.5972
2019-04-26T10:48:45.598Z,75.2136
2019-04-26T10:49:50.297Z,75.5249
2019-04-26T10:50:53.320Z,75.5249
2019-04-26T10:51:56.323Z,75.8301
2019-04-26T10:52:59.313Z,75.8301
2019-04-26T10:54:01.644Z,75.8301
2019-04-26T10:55:08.309Z,76.0376
2019-04-26T10:56:11.350Z,76.1353
2019-04-26T10:57:14.278Z,76.2390
2019-04-26T10:58:17.337Z,76.5137
2019-04-26T10:59:22.645Z,76.3062
2019-04-26T11:00:26.340Z,76.6174
2019-04-26T11:01:29.278Z,76.8188
2019-04-26T11:02:32.291Z,76.7151
2019-04-26T11:03:35.335Z,76.9592
2019-04-26T11:04:41.565Z,77.2644
2019-04-26T11:05:49.335Z,77.3682
2019-04-26T11:06:54.292Z,77.3315
2019-04-26T11:07:57.341Z,77.3315
2019-04-26T11:08:59.337Z,77.3315
2019-04-26T11:10:02.989Z,77.5391
2019-04-26T11:11:06.270Z,77.5391
2019-04-26T11:12:09.368Z,77.6428
2019-04-26T11:13:11.317Z,77.9480
2019-04-26T11:14:18.347Z,78.0518
2019-04-26T11:15:22.312Z,78.0518
2019-04-26T11:16:25.281Z,78.0518
2019-04-26T11:17:28.321Z,77.9480
2019-04-26T11:18:31.296Z,78.0518
2019-04-26T11:19:35.525Z,78.2532
2019-04-26T11:20:41.362Z,78.0884
2019-04-26T11:21:47.324Z,78.7048
2019-04-26T11:22:50.326Z,79.1138
2019-04-26T11:23:53.322Z,79.1138
2019-04-26T11:24:56.304Z,79.1138
2019-04-26T11:26:01.703Z,79.0100
2019-04-26T11:27:09.702Z,79.0100
2019-04-26T11:28:17.110Z,79.0771
2019-04-26T11:29:24.992Z,78.6682
2019-04-26T11:30:30.344Z,79.0100
2019-04-26T11:31:33.296Z,78.9062
2019-04-26T11:32:36.867Z,79.0100
2019-04-26T11:33:44.935Z,79.3213
2019-04-26T11:34:48.315Z,79.4189
2019-04-26T11:35:51.362Z,79.5227
2019-04-26T11:36:54.298Z,79.4861
2019-04-26T11:37:57.335Z,79.2847
2019-04-26T11:39:01.381Z,79.1809
2019-04-26T11:40:10.205Z,79.3823
2019-04-26T11:41:15.352Z,79.4861
2019-04-26T11:42:18.331Z,79.0100
2019-04-26T11:43:21.330Z,79.6265
2019-04-26T11:44:27.451Z,79.9316
2019-04-26T11:45:31.370Z,79.4189
2019-04-26T11:46:44.162Z,79.2175
2019-04-26T11:47:54.309Z,79.5227
2019-04-26T11:48:58.958Z,80.2429
2019-04-26T11:49:58.408Z,80.3467
2019-04-26T11:51:01.295Z,80.3467
2019-04-26T11:52:04.304Z,80.2429
2019-04-26T11:53:10.200Z,80.2429
2019-04-26T11:54:17.127Z,80.1392
2019-04-26T11:55:25.372Z,80.1025
2019-04-26T11:56:30.316Z,79.9988
2019-04-26T11:57:33.340Z,79.8950
2019-04-26T11:58:36.292Z,79.8950
2019-04-26T11:59:39.329Z,79.8950
2019-04-26T12:00:42.305Z,79.8950
2019-04-26T12:01:45.347Z,79.9988
2019-04-26T12:02:50.793Z,80.1025
2019-04-26T12:03:55.691Z,80.2063
2019-04-26T12:05:02.286Z,80.1025
2019-04-26T12:06:05.318Z,80.1025
2019-04-26T12:07:08.369Z,79.8950
2019-04-26T12:08:11.281Z,79.8950
2019-04-26T12:09:14.320Z,79.5898
2019-04-26T12:10:17.299Z,79.8950
2019-04-26T12:11:26.134Z,79.9988
2019-04-26T12:12:28.296Z,80.1025
2019-04-26T12:13:31.367Z,80.3101
2019-04-26T12:14:34.403Z,80.3101
2019-04-26T12:15:38.981Z,80.4077
2019-04-26T12:16:49.333Z,80.4077
2019-04-26T12:17:58.829Z,80.4077
2019-04-26T12:19:01.320Z,80.3101
2019-04-26T12:20:04.299Z,80.2063
2019-04-26T12:21:07.326Z,80.4077
2019-04-26T12:22:09.993Z,80.3101
2019-04-26T12:23:20.318Z,80.5115
2019-04-26T12:24:21.288Z,80.6152
2019-04-26T12:25:24.359Z,80.6152
2019-04-26T12:26:27.313Z,80.7190
2019-04-26T12:27:30.882Z,80.4749
2019-04-26T12:28:36.245Z,80.4749
2019-04-26T12:29:44.184Z,80.3711
2019-04-26T12:30:54.023Z,80.3711
2019-04-26T12:31:58.346Z,80.1697
2019-04-26T12:33:01.374Z,80.4749
2019-04-26T12:34:04.304Z,79.7974
2019-04-26T12:35:07.316Z,79.7974
2019-04-26T12:36:13.410Z,79.9988
2019-04-26T12:37:19.994Z,79.5898
2019-04-26T12:38:28.364Z,80.4077
2019-04-26T12:39:36.504Z,80.6152
2019-04-26T12:40:42.438Z,80.8228
2019-04-26T12:41:48.315Z,80.8228
2019-04-26T12:42:51.369Z,81.2317
2019-04-26T12:43:54.434Z,81.6406
2019-04-26T12:45:01.350Z,81.9092
2019-04-26T12:46:04.331Z,81.7078
2019-04-26T12:47:07.299Z,81.6040
2019-04-26T12:48:12.461Z,80.9875
2019-04-26T12:49:20.373Z,81.3599